createdAt,value
2018-03-26T00:00:07.422Z,7.80
2018-03-26T00:02:36.026Z,7.90
2018-03-26T00:05:04.373Z,7.90
2018-03-26T00:07:32.899Z,7.90
2018-03-26T00:10:01.466Z,7.90
2018-03-26T00:12:29.786Z,7.90
2018-03-26T00:14:58.126Z,7.90
2018-03-26T00:17:26.440Z,7.90
2018-03-26T00:19:54.778Z,7.90
2018-03-26T00:22:23.095Z,7.90
2018-03-26T00:24:51.461Z,7.90
2018-03-26T00:27:19.805Z,7.90
2018-03-26T00:29:48.909Z,8.00
2018-03-26T00:32:17.278Z,7.90
2018-03-26T00:34:46.427Z,8.10
2018-03-26T00:37:15.778Z,8.10
2018-03-26T00:39:44.878Z,8.10
2018-03-26T00:42:13.182Z,8.10
2018-03-26T00:44:41.517Z,8.20
2018-03-26T00:47:10.625Z,8.30
2018-03-26T00:49:38.971Z,8.20
2018-03-26T00:52:07.276Z,8.30
2018-03-26T00:54:35.754Z,8.30
2018-03-26T00:57:04.067Z,8.30
2018-03-26T00:59:32.374Z,8.30
2018-03-26T01:02:00.722Z,8.30
2018-03-26T01:04:29.036Z,8.30
2018-03-26T01:06:57.377Z,8.30
2018-03-26T01:09:25.683Z,8.30
2018-03-26T01:11:54.090Z,8.40
2018-03-26T01:14:23.162Z,8.40
2018-03-26T01:16:51.493Z,8.30
2018-03-26T01:19:19.838Z,8.40
2018-03-26T01:21:49.034Z,8.50
2018-03-26T01:24:18.134Z,8.60
2018-03-26T01:26:46.486Z,8.60
2018-03-26T01:29:15.816Z,8.60
2018-03-26T01:31:44.911Z,8.70
2018-03-26T01:34:13.231Z,8.60
2018-03-26T01:36:41.568Z,8.70
2018-03-26T01:39:09.882Z,8.70
2018-03-26T01:41:38.241Z,8.50
2018-03-26T01:44:06.552Z,8.40
2018-03-26T01:46:34.891Z,8.30
2018-03-26T01:49:03.214Z,8.30
2018-03-26T01:51:31.866Z,8.30
2018-03-26T01:54:00.170Z,8.30
2018-03-26T01:56:28.486Z,8.30
2018-03-26T01:58:57.172Z,8.30
2018-03-26T02:01:26.234Z,8.10
2018-03-26T02:03:54.608Z,8.00
2018-03-26T02:06:22.920Z,8.00
2018-03-26T02:08:51.307Z,7.90
2018-03-26T02:11:19.605Z,7.90
2018-03-26T02:13:48.052Z,7.90
2018-03-26T02:16:17.450Z,7.80
2018-03-26T02:18:46.556Z,7.80
2018-03-26T02:21:14.907Z,7.80
2018-03-26T02:23:43.274Z,7.80
2018-03-26T02:26:11.681Z,7.90
2018-03-26T02:28:40.022Z,8.00
2018-03-26T02:31:09.308Z,7.90
2018-03-26T02:33:37.638Z,7.80
2018-03-26T02:36:06.706Z,7.70
2018-03-26T02:38:35.037Z,7.60
2018-03-26T02:48:32.907Z,7.70
2018-03-26T02:51:02.000Z,7.80
2018-03-26T02:53:30.379Z,7.70
2018-03-26T02:55:59.459Z,7.80
2018-03-26T02:58:27.946Z,7.70
2018-03-26T03:00:56.249Z,7.80
2018-03-26T03:03:24.622Z,7.80
2018-03-26T03:05:53.372Z,7.80
2018-03-26T03:08:21.691Z,7.80
2018-03-26T03:10:50.271Z,7.70
2018-03-26T03:13:18.586Z,7.70
2018-03-26T03:15:46.914Z,7.60
2018-03-26T03:18:15.976Z,7.50
2018-03-26T03:20:44.309Z,7.50
2018-03-26T03:23:12.623Z,7.50
2018-03-26T03:25:40.945Z,7.50
2018-03-26T03:28:09.273Z,7.50
2018-03-26T03:30:37.767Z,7.50
2018-03-26T03:33:06.053Z,7.40
2018-03-26T03:35:34.390Z,7.40
2018-03-26T03:38:02.724Z,7.40
2018-03-26T03:40:32.547Z,7.30
2018-03-26T03:43:01.619Z,7.40
2018-03-26T03:45:29.954Z,7.30
2018-03-26T03:47:58.249Z,7.40
2018-03-26T03:50:28.106Z,7.30
2018-03-26T03:52:57.173Z,7.40
2018-03-26T03:55:25.517Z,7.30
2018-03-26T03:57:53.842Z,7.40
2018-03-26T04:00:22.166Z,7.40
2018-03-26T04:02:50.522Z,7.40
2018-03-26T04:05:18.858Z,7.40
2018-03-26T04:07:47.206Z,7.50
2018-03-26T04:10:15.538Z,7.50
2018-03-26T04:12:43.882Z,7.40
2018-03-26T04:15:12.189Z,7.40
2018-03-26T04:17:41.287Z,7.40
2018-03-26T04:20:10.358Z,7.40
2018-03-26T04:22:38.695Z,7.40
2018-03-26T04:25:07.009Z,7.50
2018-03-26T04:27:35.373Z,7.50
2018-03-26T04:30:03.704Z,7.40
2018-03-26T04:32:32.882Z,7.30
2018-03-26T04:35:01.959Z,7.20
2018-03-26T04:37:31.067Z,7.30
2018-03-26T04:40:00.149Z,7.30
2018-03-26T04:42:28.505Z,7.20
2018-03-26T04:44:56.819Z,7.30
2018-03-26T04:47:25.922Z,7.20
2018-03-26T04:49:54.230Z,7.10
2018-03-26T04:52:22.557Z,7.10
2018-03-26T04:54:50.866Z,7.10
2018-03-26T04:57:19.203Z,7.10
2018-03-26T04:59:47.557Z,7.10
2018-03-26T05:02:17.490Z,7.00
2018-03-26T05:04:45.838Z,7.00
2018-03-26T05:07:14.149Z,6.90
2018-03-26T05:09:43.422Z,6.90
2018-03-26T05:12:11.713Z,6.90
2018-03-26T05:14:40.038Z,6.90
2018-03-26T05:17:08.350Z,6.90
2018-03-26T05:19:36.706Z,6.90
2018-03-26T05:22:05.011Z,6.90
2018-03-26T05:24:33.349Z,6.80
2018-03-26T05:27:01.666Z,6.90
2018-03-26T05:29:30.014Z,6.90
2018-03-26T05:31:58.306Z,6.90
2018-03-26T05:34:26.638Z,6.90
2018-03-26T05:36:54.958Z,6.90
2018-03-26T05:39:23.270Z,6.90
2018-03-26T05:41:51.607Z,6.90
2018-03-26T05:44:19.947Z,6.90
2018-03-26T05:46:49.002Z,7.00
2018-03-26T05:49:18.131Z,7.00
2018-03-26T05:51:47.227Z,7.00
2018-03-26T05:54:15.570Z,6.90
2018-03-26T05:56:43.922Z,6.90
2018-03-26T05:59:12.300Z,6.90
2018-03-26T06:01:41.046Z,6.90
2018-03-26T06:04:10.479Z,6.90
2018-03-26T06:06:38.812Z,6.90
2018-03-26T06:09:07.952Z,7.00
2018-03-26T06:11:36.286Z,6.90
2018-03-26T06:14:04.594Z,7.00
2018-03-26T06:16:32.930Z,7.10
2018-03-26T06:19:02.101Z,7.10
2018-03-26T06:21:30.426Z,7.00
2018-03-26T06:23:59.497Z,7.20
2018-03-26T06:26:28.609Z,7.30
2018-03-26T06:28:57.686Z,7.30
2018-03-26T06:31:26.018Z,7.30
2018-03-26T06:33:54.335Z,7.40
2018-03-26T06:49:46.164Z,7.50
2018-03-26T06:52:15.299Z,7.40
2018-03-26T06:54:43.610Z,7.40
2018-03-26T06:57:11.954Z,7.50
2018-03-26T06:59:40.283Z,7.50
2018-03-26T07:02:09.415Z,7.50
2018-03-26T07:04:37.741Z,7.50
2018-03-26T07:07:06.095Z,7.50
2018-03-26T07:09:34.420Z,7.50
2018-03-26T07:12:03.542Z,7.60
2018-03-26T07:14:31.891Z,7.60
2018-03-26T07:17:00.242Z,7.70
2018-03-26T07:19:28.553Z,7.70
2018-03-26T07:21:56.898Z,7.60
2018-03-26T07:24:26.001Z,7.60
2018-03-26T07:26:54.334Z,7.50
2018-03-26T07:29:22.664Z,7.60
2018-03-26T07:31:50.961Z,7.60
2018-03-26T07:34:19.538Z,7.60
2018-03-26T07:36:48.652Z,7.80
2018-03-26T07:39:17.112Z,7.70
2018-03-26T07:41:46.194Z,7.90
2018-03-26T07:44:15.391Z,7.90
2018-03-26T07:46:44.467Z,7.80
2018-03-26T07:49:13.594Z,7.90
2018-03-26T07:51:42.663Z,7.90
2018-03-26T07:54:12.622Z,7.90
2018-03-26T07:56:40.918Z,7.90
2018-03-26T07:59:09.268Z,8.10
2018-03-26T08:01:38.335Z,8.30
2018-03-26T08:04:07.441Z,8.30
2018-03-26T08:06:36.615Z,8.30
2018-03-26T08:09:05.738Z,8.40
2018-03-26T08:11:34.078Z,8.40
2018-03-26T08:14:02.501Z,8.30
2018-03-26T08:16:30.806Z,8.20
2018-03-26T08:18:59.154Z,8.10
2018-03-26T08:21:27.478Z,8.10
2018-03-26T08:23:55.898Z,8.10
2018-03-26T08:26:25.103Z,8.00
2018-03-26T08:28:54.202Z,8.00
2018-03-26T08:31:23.305Z,7.90
2018-03-26T08:33:51.602Z,7.90
2018-03-26T08:36:19.939Z,8.00
2018-03-26T08:38:48.293Z,8.20
2018-03-26T08:41:16.663Z,8.20
2018-03-26T08:43:44.999Z,8.30
2018-03-26T08:46:13.340Z,8.30
2018-03-26T08:48:43.138Z,8.60
2018-03-26T08:51:12.241Z,8.60
2018-03-26T08:53:40.555Z,8.60
2018-03-26T08:56:08.921Z,8.50
2018-03-26T08:58:37.230Z,8.40
2018-03-26T09:01:05.606Z,8.50
2018-03-26T09:03:33.946Z,8.50
2018-03-26T09:06:03.046Z,8.50
2018-03-26T09:08:33.035Z,8.60
2018-03-26T09:11:02.156Z,8.60
2018-03-26T09:13:31.223Z,8.50
2018-03-26T09:15:59.635Z,8.40
2018-03-26T09:18:28.695Z,8.30
2018-03-26T09:20:57.802Z,8.40
2018-03-26T09:23:26.891Z,8.50
2018-03-26T09:25:55.226Z,8.40
2018-03-26T09:28:23.556Z,8.60
2018-03-26T09:30:52.626Z,8.80
2018-03-26T09:33:20.984Z,8.80
2018-03-26T09:35:49.284Z,9.00
2018-03-26T09:38:17.618Z,9.10
2018-03-26T09:40:45.915Z,9.20
2018-03-26T09:43:15.063Z,9.40
2018-03-26T09:45:44.126Z,9.60
2018-03-26T09:48:12.449Z,9.50
2018-03-26T09:50:40.847Z,9.80
2018-03-26T09:53:09.199Z,10.00
2018-03-26T09:55:37.510Z,10.20
2018-03-26T09:58:05.842Z,10.30
2018-03-26T10:00:40.567Z,10.60
2018-03-26T10:03:09.678Z,10.50
2018-03-26T10:05:37.994Z,10.50
2018-03-26T10:08:06.339Z,10.50
2018-03-26T10:10:34.647Z,10.60
2018-03-26T10:13:02.996Z,10.70
2018-03-26T10:15:31.306Z,10.80
2018-03-26T10:17:59.646Z,11.00
2018-03-26T10:20:28.051Z,10.70
2018-03-26T10:22:56.569Z,10.50
2018-03-26T10:25:24.971Z,10.20
2018-03-26T10:27:53.320Z,10.00
2018-03-26T10:30:21.655Z,9.80
2018-03-26T10:32:49.962Z,9.60
2018-03-26T10:35:18.303Z,9.80
2018-03-26T10:37:46.639Z,9.80
2018-03-26T10:40:15.838Z,10.00
2018-03-26T10:42:44.159Z,9.90
2018-03-26T10:45:12.494Z,9.80
2018-03-26T10:47:41.901Z,9.60
2018-03-26T10:50:10.268Z,9.50
2018-03-26T10:52:39.347Z,9.50
2018-03-26T10:55:07.954Z,9.40
2018-03-26T10:57:36.341Z,9.60
2018-03-26T11:00:05.446Z,9.80
2018-03-26T11:02:34.505Z,9.80
2018-03-26T11:05:03.747Z,9.80
2018-03-26T11:07:32.047Z,9.80
2018-03-26T11:10:00.412Z,9.90
2018-03-26T11:12:28.790Z,9.90
2018-03-26T11:14:57.280Z,9.90
2018-03-26T11:17:26.402Z,10.10
2018-03-26T11:19:54.753Z,10.00
2018-03-26T11:22:23.091Z,10.20
2018-03-26T11:24:51.453Z,10.20
2018-03-26T11:27:19.779Z,10.10
2018-03-26T11:29:48.114Z,10.00
2018-03-26T11:32:17.226Z,9.70
2018-03-26T11:34:45.592Z,9.60
2018-03-26T11:37:13.949Z,9.80
2018-03-26T11:39:42.298Z,10.00
2018-03-26T11:42:10.632Z,10.30
2018-03-26T11:44:38.966Z,10.70
2018-03-26T11:47:07.311Z,10.60
2018-03-26T11:49:36.807Z,10.90
2018-03-26T11:52:05.143Z,10.90
2018-03-26T11:54:33.581Z,10.90
2018-03-26T11:57:02.325Z,10.80
2018-03-26T11:59:30.635Z,10.70
2018-03-26T12:01:58.977Z,10.50
2018-03-26T12:04:28.055Z,10.00
2018-03-26T12:06:57.185Z,9.80
2018-03-26T12:09:25.523Z,9.80
2018-03-26T12:11:53.850Z,9.80
2018-03-26T12:14:22.262Z,9.80
2018-03-26T12:16:50.632Z,9.80
2018-03-26T12:19:18.938Z,9.80
2018-03-26T12:21:48.037Z,10.20
2018-03-26T12:24:29.149Z,10.50
2018-03-26T12:26:57.483Z,10.50
2018-03-26T12:29:37.767Z,10.50
2018-03-26T12:32:06.102Z,10.40
2018-03-26T12:34:48.106Z,9.80
2018-03-26T12:37:16.446Z,9.70
2018-03-26T12:39:44.810Z,9.60
2018-03-26T12:42:13.145Z,9.50
2018-03-26T12:44:53.622Z,9.40
2018-03-26T12:47:22.784Z,9.30
2018-03-26T12:49:51.124Z,9.30
2018-03-26T12:52:31.293Z,9.40
2018-03-26T12:54:59.620Z,9.60
2018-03-26T12:57:52.379Z,9.80
2018-03-26T13:00:21.474Z,9.90
2018-03-26T13:02:49.819Z,9.90
2018-03-26T13:05:18.124Z,10.00
2018-03-26T13:07:47.241Z,10.20
2018-03-26T13:10:15.582Z,10.10
2018-03-26T13:12:43.947Z,10.20
2018-03-26T13:15:12.526Z,10.20
2018-03-26T13:17:40.867Z,10.20
2018-03-26T13:20:09.182Z,10.10
2018-03-26T13:22:37.554Z,10.20
2018-03-26T13:25:05.962Z,10.20
2018-03-26T13:27:34.286Z,10.20
2018-03-26T13:30:02.670Z,10.00
2018-03-26T13:32:31.004Z,9.90
2018-03-26T13:35:00.194Z,9.60
2018-03-26T13:37:29.272Z,9.30
2018-03-26T13:39:57.642Z,9.30
2018-03-26T13:42:26.733Z,9.10
2018-03-26T13:44:55.071Z,9.10
2018-03-26T13:47:23.403Z,8.90
2018-03-26T13:49:52.546Z,8.90
2018-03-26T13:52:20.866Z,8.80
2018-03-26T13:54:49.207Z,8.90
2018-03-26T13:57:17.519Z,9.00
2018-03-26T13:59:46.659Z,8.90
2018-03-26T14:02:16.542Z,8.80
2018-03-26T14:04:44.939Z,8.80
2018-03-26T14:07:13.246Z,8.70
2018-03-26T14:23:11.722Z,8.50
2018-03-26T14:25:40.140Z,8.40
2018-03-26T14:28:08.446Z,8.40
2018-03-26T14:30:37.834Z,8.50
2018-03-26T14:33:06.192Z,8.40
2018-03-26T14:35:49.408Z,8.40
2018-03-26T14:38:18.502Z,8.40
2018-03-26T14:40:46.822Z,8.40
2018-03-26T14:43:15.140Z,8.40
2018-03-26T14:45:43.466Z,8.50
2018-03-26T14:48:12.538Z,8.40
2018-03-26T14:50:40.873Z,8.40
2018-03-26T14:53:09.231Z,8.50
2018-03-26T14:55:37.534Z,8.40
2018-03-26T14:58:05.861Z,8.40
2018-03-26T15:00:34.934Z,8.40
2018-03-26T15:03:04.054Z,8.40
2018-03-26T15:05:33.122Z,8.40
2018-03-26T15:08:02.958Z,8.40
2018-03-26T15:10:32.121Z,8.50
2018-03-26T15:13:00.451Z,8.50
2018-03-26T15:15:28.826Z,8.60
2018-03-26T15:17:57.158Z,8.50
2018-03-26T15:20:25.790Z,8.40
2018-03-26T15:22:54.159Z,8.40
2018-03-26T15:25:23.218Z,8.30
2018-03-26T15:27:51.598Z,8.30
2018-03-26T15:30:20.709Z,8.30
2018-03-26T15:32:49.815Z,8.20
2018-03-26T15:35:18.874Z,8.20
2018-03-26T15:37:47.284Z,8.10
2018-03-26T15:40:16.345Z,8.20
2018-03-26T15:42:44.683Z,8.10
2018-03-26T15:45:12.986Z,8.00
2018-03-26T15:47:41.328Z,7.90
2018-03-26T15:50:09.630Z,8.00
2018-03-26T15:52:37.929Z,7.90
2018-03-26T15:55:06.265Z,7.80
2018-03-26T15:57:34.606Z,7.80
2018-03-26T16:00:03.010Z,7.70
2018-03-26T16:02:37.107Z,7.60
2018-03-26T16:05:05.461Z,7.70
2018-03-26T16:07:33.797Z,7.80
2018-03-26T16:10:02.150Z,7.80
2018-03-26T16:12:31.221Z,7.50
2018-03-26T16:15:00.326Z,7.50
2018-03-26T16:17:29.476Z,7.40
2018-03-26T16:19:57.790Z,7.30
2018-03-26T16:22:26.862Z,7.30
2018-03-26T16:24:56.361Z,7.20
2018-03-26T16:27:24.673Z,7.20
2018-03-26T16:29:53.135Z,7.20
2018-03-26T16:32:21.430Z,7.10
2018-03-26T16:34:50.523Z,7.00
2018-03-26T16:37:18.844Z,7.00
2018-03-26T16:39:47.190Z,7.00
2018-03-26T16:42:20.253Z,6.80
2018-03-26T16:44:49.381Z,6.70
2018-03-26T16:47:17.698Z,6.60
2018-03-26T16:49:46.066Z,6.50
2018-03-26T16:52:14.702Z,6.50
2018-03-26T16:54:43.034Z,6.40
2018-03-26T16:57:12.917Z,6.20
2018-03-26T16:59:41.229Z,6.20
2018-03-26T17:02:10.370Z,6.10
2018-03-26T17:04:38.919Z,6.10
2018-03-26T17:07:07.238Z,6.10
2018-03-26T17:09:36.294Z,6.20
2018-03-26T17:12:04.636Z,6.10
2018-03-26T17:14:32.937Z,6.20
2018-03-26T17:17:01.280Z,6.20
2018-03-26T17:19:29.640Z,6.10
2018-03-26T17:21:57.983Z,6.00
2018-03-26T17:24:26.280Z,5.90
2018-03-26T17:26:55.605Z,5.90
2018-03-26T17:29:23.914Z,5.90
2018-03-26T17:31:53.050Z,5.90
2018-03-26T17:34:22.116Z,5.80
2018-03-26T17:36:50.513Z,5.80
2018-03-26T17:39:18.881Z,5.90
2018-03-26T17:41:47.199Z,5.80
2018-03-26T17:44:15.547Z,5.80
2018-03-26T17:46:44.141Z,5.80
2018-03-26T17:49:13.242Z,5.80
2018-03-26T17:51:41.602Z,5.80
2018-03-26T17:54:10.706Z,5.90
2018-03-26T17:56:39.762Z,5.90
2018-03-26T17:59:08.898Z,5.90
2018-03-26T18:01:37.222Z,5.90
2018-03-26T18:04:05.590Z,5.90
2018-03-26T18:06:33.890Z,5.90
2018-03-26T18:09:02.228Z,6.00
2018-03-26T18:11:30.783Z,6.10
2018-03-26T18:13:59.889Z,6.10
2018-03-26T18:16:28.210Z,6.10
2018-03-26T18:18:56.607Z,6.10
2018-03-26T18:21:26.527Z,6.00
2018-03-26T18:23:54.826Z,6.00
2018-03-26T18:26:23.221Z,6.00
2018-03-26T18:28:52.307Z,6.00
2018-03-26T18:31:20.636Z,6.00
2018-03-26T18:33:49.807Z,5.80
2018-03-26T18:36:18.150Z,5.80
2018-03-26T18:38:46.523Z,5.70
2018-03-26T18:41:14.846Z,5.60
2018-03-26T18:43:44.302Z,5.60
2018-03-26T18:46:13.385Z,5.50
2018-03-26T18:48:42.482Z,5.50
2018-03-26T18:51:10.861Z,5.40
2018-03-26T18:53:39.936Z,5.40
2018-03-26T18:56:08.317Z,5.30
2018-03-26T18:58:36.610Z,5.40
2018-03-26T19:01:05.718Z,5.30
2018-03-26T19:03:34.045Z,5.20
2018-03-26T19:06:02.383Z,5.30
2018-03-26T19:08:31.438Z,5.20
2018-03-26T19:10:59.774Z,5.20
2018-03-26T19:13:28.069Z,5.20
2018-03-26T19:15:56.386Z,5.20
2018-03-26T19:18:25.476Z,5.20
2018-03-26T19:20:54.584Z,5.20
2018-03-26T19:23:23.677Z,5.20
2018-03-26T19:25:52.770Z,5.10
2018-03-26T19:28:21.114Z,5.10
2018-03-26T19:30:49.430Z,5.10
2018-03-26T19:33:18.510Z,5.10
2018-03-26T19:35:47.627Z,5.10
2018-03-26T19:38:15.934Z,5.00
2018-03-26T19:40:44.276Z,5.00
2018-03-26T19:43:12.617Z,5.00
2018-03-26T19:45:40.959Z,5.00
2018-03-26T19:48:10.092Z,5.00
2018-03-26T19:50:38.395Z,4.90
2018-03-26T19:53:07.487Z,4.90
2018-03-26T19:55:36.566Z,4.90
2018-03-26T19:58:04.903Z,4.80
2018-03-26T20:00:33.198Z,4.80
2018-03-26T20:03:01.580Z,4.80
2018-03-26T20:05:30.105Z,4.80
2018-03-26T20:07:59.205Z,4.80
2018-03-26T20:10:27.530Z,4.70
2018-03-26T20:12:56.686Z,4.70
2018-03-26T20:15:25.083Z,4.60
2018-03-26T20:17:53.489Z,4.70
2018-03-26T20:20:21.919Z,4.70
2018-03-26T20:22:50.454Z,4.70
2018-03-26T20:25:19.978Z,4.60
2018-03-26T20:27:49.056Z,4.60
2018-03-26T20:30:18.454Z,4.60
2018-03-26T20:32:47.687Z,4.60
2018-03-26T20:35:16.106Z,4.50
2018-03-26T20:37:44.855Z,4.50
2018-03-26T20:40:13.211Z,4.50
2018-03-26T20:42:42.652Z,4.50
2018-03-26T20:45:10.961Z,4.50
2018-03-26T20:47:39.381Z,4.50
2018-03-26T20:50:08.478Z,4.50
2018-03-26T20:52:37.559Z,4.40
2018-03-26T20:55:05.868Z,4.40
2018-03-26T20:57:34.421Z,4.40
2018-03-26T21:00:02.921Z,4.40
2018-03-26T21:02:31.230Z,4.40
2018-03-26T21:04:59.603Z,4.40
2018-03-26T21:07:27.918Z,4.30
2018-03-26T21:09:56.255Z,4.30
2018-03-26T21:12:24.561Z,4.30
2018-03-26T21:14:52.955Z,4.30
2018-03-26T21:17:21.287Z,4.20
2018-03-26T21:19:49.938Z,4.20
2018-03-26T21:22:19.039Z,4.10
2018-03-26T21:24:48.152Z,4.10
2018-03-26T21:27:16.607Z,4.00
2018-03-26T21:29:45.820Z,4.00
2018-03-26T21:32:14.174Z,4.00
2018-03-26T21:34:43.281Z,4.00
2018-03-26T21:37:12.382Z,4.00
2018-03-26T21:39:41.575Z,4.00
2018-03-26T21:42:10.632Z,4.00
2018-03-26T21:44:39.763Z,4.00
2018-03-26T21:47:08.866Z,4.00
2018-03-26T21:49:37.206Z,3.90
2018-03-26T21:52:06.327Z,4.00
2018-03-26T21:54:35.427Z,4.10
2018-03-26T21:57:04.490Z,4.10
2018-03-26T21:59:32.994Z,4.00
2018-03-26T22:02:02.073Z,4.00
2018-03-26T22:04:30.381Z,3.90
2018-03-26T22:06:59.486Z,3.90
2018-03-26T22:09:27.807Z,3.80
2018-03-26T22:11:56.144Z,3.80
2018-03-26T22:14:24.466Z,3.80
2018-03-26T22:16:52.806Z,3.80
2018-03-26T22:19:21.119Z,3.80
2018-03-26T22:21:49.466Z,3.80
2018-03-26T22:24:17.768Z,3.70
2018-03-26T22:26:46.110Z,3.70
2018-03-26T22:29:14.446Z,3.60
2018-03-26T22:31:42.841Z,3.60
2018-03-26T22:34:11.158Z,3.50
2018-03-26T22:36:39.596Z,3.50
2018-03-26T22:39:08.663Z,3.50
2018-03-26T22:41:36.997Z,3.40
2018-03-26T22:44:05.313Z,3.40
2018-03-26T22:46:33.638Z,3.40
2018-03-26T22:49:01.967Z,3.40
2018-03-26T22:51:31.080Z,3.30
2018-03-26T22:53:59.555Z,3.30
2018-03-26T22:56:28.654Z,3.30
2018-03-26T22:58:57.727Z,3.20
2018-03-26T23:01:26.103Z,3.20
2018-03-26T23:03:55.203Z,3.20
2018-03-26T23:06:23.509Z,3.10
2018-03-26T23:08:51.846Z,3.10
2018-03-26T23:11:20.970Z,3.10
2018-03-26T23:13:50.079Z,3.10
2018-03-26T23:16:18.397Z,3.10
2018-03-26T23:18:46.800Z,3.10
2018-03-26T23:21:15.090Z,3.10
2018-03-26T23:23:44.211Z,3.10
2018-03-26T23:26:12.510Z,3.00
2018-03-26T23:28:40.852Z,3.10
2018-03-26T23:31:09.914Z,3.00
2018-03-26T23:33:38.248Z,3.00
2018-03-26T23:36:06.545Z,3.00
2018-03-26T23:38:34.870Z,2.90
2018-03-26T23:41:03.258Z,2.90
2018-03-26T23:43:31.625Z,2.90
2018-03-26T23:45:59.927Z,2.90
2018-03-26T23:48:29.111Z,2.90
2018-03-26T23:50:58.202Z,2.80
2018-03-26T23:53:26.527Z,2.80
2018-03-26T23:55:54.860Z,2.80
2018-03-26T23:58:23.172Z,2.80
